createdAt,value
2023-04-22T00:01:15.917Z,10.80
2023-04-22T00:03:44.647Z,10.60
2023-04-22T00:06:13.317Z,10.80
2023-04-22T00:08:41.930Z,10.70
2023-04-22T00:11:10.114Z,10.70
2023-04-22T00:13:40.541Z,10.70
2023-04-22T00:16:09.491Z,10.70
2023-04-22T00:18:37.775Z,10.60
2023-04-22T00:21:06.566Z,10.60
2023-04-22T00:23:35.147Z,10.50
2023-04-22T00:26:03.623Z,10.50
2023-04-22T00:28:31.754Z,10.40
2023-04-22T00:31:03.291Z,10.40
2023-04-22T00:33:32.070Z,10.20
2023-04-22T00:36:00.161Z,10.40
2023-04-22T00:38:28.893Z,10.50
2023-04-22T00:40:57.766Z,10.50
2023-04-22T00:43:25.924Z,10.40
2023-04-22T00:45:54.744Z,10.20
2023-04-22T00:48:28.269Z,10.30
2023-04-22T00:50:56.923Z,10.20
2023-04-22T00:53:25.028Z,10.10
2023-04-22T00:55:54.237Z,10.10
2023-04-22T00:58:24.385Z,10.00
2023-04-22T01:00:53.330Z,10.00
2023-04-22T01:03:24.084Z,10.00
2023-04-22T01:05:52.684Z,10.10
2023-04-22T01:08:21.292Z,9.90
2023-04-22T01:10:49.504Z,9.80
2023-04-22T01:13:17.563Z,9.80
2023-04-22T01:15:45.712Z,9.80
2023-04-22T01:18:13.942Z,9.80
2023-04-22T01:20:43.600Z,9.90
2023-04-22T01:23:18.731Z,9.80
2023-04-22T01:25:47.422Z,9.70
2023-04-22T01:28:16.307Z,9.70
2023-04-22T01:30:45.736Z,9.80
2023-04-22T01:33:14.263Z,9.70
2023-04-22T01:35:42.496Z,9.70
2023-04-22T01:38:13.496Z,9.70
2023-04-22T01:40:43.103Z,9.80
2023-04-22T01:43:11.406Z,10.10
2023-04-22T01:45:39.757Z,9.70
2023-04-22T01:48:08.243Z,9.70
2023-04-22T01:50:36.837Z,9.60
2023-04-22T01:53:05.536Z,9.60
2023-04-22T01:55:36.162Z,9.50
2023-04-22T01:58:06.862Z,9.50
2023-04-22T02:00:34.945Z,9.50
2023-04-22T02:03:03.425Z,9.40
2023-04-22T02:05:31.616Z,9.40
2023-04-22T02:10:29.110Z,9.40
2023-04-22T02:12:57.199Z,9.40
2023-04-22T02:15:26.846Z,9.40
2023-04-22T02:17:54.891Z,9.30
2023-04-22T02:20:22.964Z,9.40
2023-04-22T02:22:51.103Z,9.30
2023-04-22T02:25:19.576Z,9.30
2023-04-22T02:27:47.784Z,9.20
2023-04-22T02:30:16.174Z,9.30
2023-04-22T02:32:46.673Z,9.30
2023-04-22T02:35:15.472Z,9.30
2023-04-22T02:37:43.750Z,9.20
2023-04-22T02:40:12.849Z,9.20
2023-04-22T02:42:41.042Z,9.20
2023-04-22T02:45:10.019Z,9.20
2023-04-22T02:47:38.299Z,9.10
2023-04-22T02:50:09.582Z,9.20
2023-04-22T02:52:37.814Z,9.10
2023-04-22T02:55:07.212Z,9.10
2023-04-22T02:57:35.493Z,9.20
2023-04-22T03:00:04.673Z,9.20
2023-04-22T03:02:33.229Z,9.10
2023-04-22T03:05:03.534Z,9.10
2023-04-22T03:07:33.412Z,9.00
2023-04-22T03:10:01.555Z,9.00
2023-04-22T03:12:29.967Z,9.00
2023-04-22T03:14:58.228Z,8.90
2023-04-22T03:17:28.168Z,8.90
2023-04-22T03:19:56.486Z,8.90
2023-04-22T03:22:24.582Z,9.00
2023-04-22T03:24:54.045Z,8.80
2023-04-22T03:27:22.149Z,8.70
2023-04-22T03:29:50.326Z,8.60
2023-04-22T03:32:18.368Z,8.50
2023-04-22T03:34:46.645Z,8.50
2023-04-22T03:37:14.647Z,8.60
2023-04-22T03:39:42.887Z,8.50
2023-04-22T03:42:14.068Z,8.50
2023-04-22T03:44:42.270Z,8.50
2023-04-22T03:47:10.517Z,8.80
2023-04-22T03:49:39.031Z,8.50
2023-04-22T03:52:07.258Z,8.40
2023-04-22T03:54:35.289Z,8.40
2023-04-22T03:57:03.253Z,8.40
2023-04-22T03:59:32.695Z,8.40
2023-04-22T04:02:00.833Z,8.30
2023-04-22T04:04:29.775Z,8.20
2023-04-22T04:06:58.323Z,8.20
2023-04-22T04:09:28.933Z,8.40
2023-04-22T04:11:58.238Z,8.10
2023-04-22T04:14:26.352Z,8.20
2023-04-22T04:16:55.874Z,8.10
2023-04-22T04:19:24.073Z,8.00
2023-04-22T04:21:52.513Z,8.00
2023-04-22T04:24:20.515Z,8.00
2023-04-22T04:26:48.856Z,8.10
2023-04-22T04:29:20.207Z,8.00
2023-04-22T04:31:48.588Z,8.10
2023-04-22T04:34:19.238Z,8.20
2023-04-22T04:36:47.495Z,8.20
2023-04-22T04:39:18.900Z,8.20
2023-04-22T04:41:49.066Z,8.10
2023-04-22T04:44:17.302Z,8.40
2023-04-22T04:46:46.792Z,8.30
2023-04-22T04:49:15.043Z,8.30
2023-04-22T04:51:44.585Z,8.20
2023-04-22T04:54:12.685Z,8.30
2023-04-22T04:56:40.804Z,8.30
2023-04-22T04:59:09.027Z,8.30
2023-04-22T05:01:37.381Z,8.30
2023-04-22T05:04:05.730Z,8.40
2023-04-22T05:06:33.958Z,8.40
2023-04-22T05:09:03.576Z,8.20
2023-04-22T05:11:31.649Z,8.30
2023-04-22T05:13:59.689Z,8.30
2023-04-22T05:16:28.169Z,8.30
2023-04-22T05:18:57.282Z,8.40
2023-04-22T05:21:25.386Z,8.50
2023-04-22T05:23:53.401Z,8.70
2023-04-22T05:26:25.055Z,8.70
2023-04-22T05:28:53.144Z,8.80
2023-04-22T05:31:21.341Z,8.80
2023-04-22T05:33:49.467Z,8.80
2023-04-22T05:36:17.647Z,8.90
2023-04-22T05:38:45.747Z,8.90
2023-04-22T05:43:44.483Z,9.10
2023-04-22T05:46:12.604Z,9.10
2023-04-22T05:48:40.818Z,9.10
2023-04-22T05:51:09.460Z,9.20
2023-04-22T05:53:37.497Z,9.20
2023-04-22T05:56:05.873Z,9.30
2023-04-22T05:58:33.834Z,9.50
2023-04-22T06:01:03.425Z,9.40
2023-04-22T06:03:31.756Z,9.60
2023-04-22T06:06:00.544Z,9.70
2023-04-22T06:08:28.927Z,9.60
2023-04-22T06:10:56.970Z,9.70
2023-04-22T06:13:25.489Z,9.70
2023-04-22T06:15:53.566Z,9.80
2023-04-22T06:18:23.846Z,9.80
2023-04-22T06:20:54.016Z,9.90
2023-04-22T06:23:22.014Z,10.10
2023-04-22T06:25:50.147Z,10.40
2023-04-22T06:28:18.122Z,10.30
2023-04-22T06:30:46.260Z,10.40
2023-04-22T06:33:14.285Z,10.50
2023-04-22T06:35:43.883Z,10.60
2023-04-22T06:38:12.089Z,10.60
2023-04-22T06:40:40.217Z,10.80
2023-04-22T06:43:08.184Z,10.80
2023-04-22T06:45:36.144Z,11.30
2023-04-22T06:48:04.285Z,11.10
2023-04-22T06:50:32.402Z,11.20
2023-04-22T06:53:01.872Z,11.20
2023-04-22T06:55:30.309Z,11.50
2023-04-22T06:57:58.658Z,11.60
2023-04-22T07:00:26.853Z,11.60
2023-04-22T07:02:56.997Z,11.50
2023-04-22T07:05:25.584Z,11.80
2023-04-22T07:07:53.644Z,11.80
2023-04-22T07:10:26.474Z,12.00
2023-04-22T07:12:54.591Z,12.00
2023-04-22T07:15:22.640Z,12.10
2023-04-22T07:17:51.056Z,12.20
2023-04-22T07:20:19.168Z,12.20
2023-04-22T07:22:47.553Z,12.30
2023-04-22T07:25:16.100Z,12.50
2023-04-22T07:27:45.873Z,12.60
2023-04-22T07:30:14.859Z,12.70
2023-04-22T07:32:43.293Z,12.90
2023-04-22T07:35:12.144Z,13.00
2023-04-22T07:37:40.613Z,13.20
2023-04-22T07:40:12.067Z,13.20
2023-04-22T07:42:40.320Z,13.10
2023-04-22T07:45:10.413Z,13.20
2023-04-22T07:47:38.714Z,13.20
2023-04-22T07:50:07.940Z,13.30
2023-04-22T07:52:36.437Z,13.40
2023-04-22T07:55:04.823Z,13.40
2023-04-22T07:57:38.357Z,13.50
2023-04-22T08:00:07.797Z,13.50
2023-04-22T08:02:37.587Z,13.60
2023-04-22T08:05:06.829Z,13.60
2023-04-22T08:07:34.966Z,13.70
2023-04-22T08:10:03.550Z,13.70
2023-04-22T08:12:31.989Z,13.90
2023-04-22T08:15:00.756Z,13.90
2023-04-22T08:17:29.065Z,13.90
2023-04-22T08:19:58.826Z,14.10
2023-04-22T08:22:27.594Z,14.20
2023-04-22T08:24:55.882Z,14.30
2023-04-22T08:27:24.018Z,14.40
2023-04-22T08:29:52.240Z,14.40
2023-04-22T08:32:40.542Z,14.50
2023-04-22T08:35:11.247Z,14.60
2023-04-22T08:37:40.599Z,14.60
2023-04-22T08:40:10.519Z,14.80
2023-04-22T08:42:39.503Z,14.80
2023-04-22T08:45:09.963Z,14.90
2023-04-22T08:47:39.662Z,15.10
2023-04-22T08:50:11.051Z,15.20
2023-04-22T08:52:39.574Z,15.40
2023-04-22T08:55:09.118Z,15.60
2023-04-22T08:57:39.638Z,15.70
2023-04-22T09:00:10.658Z,15.70
2023-04-22T09:02:39.819Z,15.90
2023-04-22T09:05:10.409Z,15.80
2023-04-22T09:07:41.013Z,16.00
2023-04-22T09:10:11.810Z,16.00
2023-04-22T09:12:40.968Z,16.10
2023-04-22T09:15:09.874Z,16.10
2023-04-22T09:17:38.938Z,16.10
2023-04-22T09:20:08.832Z,16.00
2023-04-22T09:22:44.116Z,16.00
2023-04-22T09:25:19.384Z,16.10
2023-04-22T09:27:51.517Z,16.30
2023-04-22T09:30:20.354Z,16.40
2023-04-22T09:32:58.373Z,16.50
2023-04-22T09:35:28.947Z,16.50
2023-04-22T09:37:59.198Z,16.50
2023-04-22T09:40:27.852Z,16.50
2023-04-22T09:42:58.276Z,16.70
2023-04-22T09:45:30.844Z,16.70
2023-04-22T09:48:01.409Z,16.90
2023-04-22T09:50:30.238Z,17.00
2023-04-22T09:53:01.886Z,16.70
2023-04-22T09:55:32.120Z,17.00
2023-04-22T09:58:05.726Z,17.10
2023-04-22T10:00:33.796Z,17.20
2023-04-22T10:03:02.298Z,17.20
2023-04-22T10:05:30.753Z,17.10
2023-04-22T10:08:00.501Z,17.40
2023-04-22T10:10:29.753Z,17.50
2023-04-22T10:12:58.393Z,17.60
2023-04-22T10:15:27.639Z,17.70
2023-04-22T10:17:56.913Z,17.80
2023-04-22T10:20:26.306Z,17.90
2023-04-22T10:22:55.370Z,17.90
2023-04-22T10:25:26.298Z,17.90
2023-04-22T10:27:55.526Z,18.00
2023-04-22T10:30:30.807Z,18.10
2023-04-22T10:33:42.781Z,18.20
2023-04-22T10:36:16.608Z,18.50
2023-04-22T10:39:19.063Z,18.50
2023-04-22T10:41:55.339Z,18.70
2023-04-22T10:44:24.277Z,18.70
2023-04-22T10:47:01.976Z,18.80
2023-04-22T10:49:34.782Z,18.90
2023-04-22T10:55:02.227Z,19.20
2023-04-22T10:57:37.830Z,19.60
2023-04-22T11:00:42.166Z,19.60
2023-04-22T11:03:18.725Z,19.40
2023-04-22T11:05:47.038Z,19.60
2023-04-22T11:08:22.976Z,19.30
2023-04-22T11:10:52.171Z,19.70
2023-04-22T11:13:22.521Z,20.00
2023-04-22T11:15:54.086Z,21.00
2023-04-22T11:18:23.522Z,20.20
2023-04-22T11:20:53.559Z,20.50
2023-04-22T11:23:25.688Z,20.40
2023-04-22T11:25:58.011Z,20.50
2023-04-22T11:28:27.691Z,20.50
2023-04-22T11:31:03.275Z,20.70
2023-04-22T11:33:33.035Z,20.70
2023-04-22T11:36:01.270Z,20.80
2023-04-22T11:38:29.390Z,20.80
2023-04-22T11:41:17.362Z,21.00
2023-04-22T11:43:50.632Z,21.60
2023-04-22T11:46:38.311Z,21.30
2023-04-22T11:49:16.695Z,21.30
2023-04-22T11:51:55.287Z,21.40
2023-04-22T11:54:32.680Z,21.40
2023-04-22T11:57:03.408Z,21.60
2023-04-22T11:59:33.341Z,21.70
2023-04-22T12:02:01.805Z,21.90
2023-04-22T12:04:36.255Z,22.10
2023-04-22T12:07:05.838Z,22.30
2023-04-22T12:09:34.660Z,22.30
2023-04-22T12:12:04.637Z,22.20
2023-04-22T12:14:37.340Z,23.20
2023-04-22T12:17:06.395Z,22.60
2023-04-22T12:19:34.356Z,22.80
2023-04-22T12:22:03.846Z,23.10
2023-04-22T12:24:32.233Z,23.00
2023-04-22T12:27:01.935Z,23.00
2023-04-22T12:29:32.641Z,23.20
2023-04-22T12:32:01.969Z,23.30
2023-04-22T12:34:29.879Z,23.30
2023-04-22T12:36:57.782Z,23.40
2023-04-22T12:39:26.101Z,23.60
2023-04-22T12:41:53.955Z,23.20
2023-04-22T12:44:24.445Z,23.30
2023-04-22T12:46:53.367Z,23.20
2023-04-22T12:49:22.785Z,23.00
2023-04-22T12:51:51.236Z,22.90
2023-04-22T12:54:21.147Z,22.80
2023-04-22T12:56:50.250Z,23.30
2023-04-22T12:59:18.152Z,23.40
2023-04-22T13:01:48.321Z,23.60
2023-04-22T13:04:16.301Z,23.50
2023-04-22T13:06:45.563Z,23.90
2023-04-22T13:09:13.611Z,24.00
2023-04-22T13:11:41.511Z,24.20
2023-04-22T13:14:09.587Z,24.00
2023-04-22T13:16:37.661Z,24.00
2023-04-22T13:19:06.197Z,24.10
2023-04-22T13:21:34.053Z,24.00
2023-04-22T13:24:03.486Z,24.10
2023-04-22T13:26:31.847Z,24.10
2023-04-22T13:29:01.471Z,24.20
2023-04-22T13:31:30.585Z,24.50
2023-04-22T13:33:58.844Z,24.90
2023-04-22T13:36:27.747Z,24.40
2023-04-22T13:38:55.999Z,24.50
2023-04-22T13:41:25.214Z,24.60
2023-04-22T13:43:54.377Z,24.50
2023-04-22T13:46:22.835Z,24.50
2023-04-22T13:48:51.049Z,24.40
2023-04-22T13:51:18.893Z,24.50
2023-04-22T13:53:46.758Z,24.50
2023-04-22T13:56:15.137Z,24.50
2023-04-22T13:58:44.451Z,24.50
2023-04-22T14:01:12.354Z,24.60
2023-04-22T14:03:40.462Z,24.30
2023-04-22T14:06:08.490Z,23.90
2023-04-22T14:08:36.524Z,23.90
2023-04-22T14:11:05.098Z,23.70
2023-04-22T14:13:33.005Z,24.00
2023-04-22T14:16:03.263Z,24.30
2023-04-22T14:18:31.362Z,24.40
2023-04-22T14:20:59.281Z,24.70
2023-04-22T14:23:27.098Z,24.00
2023-04-22T14:25:55.749Z,24.60
2023-04-22T14:28:23.619Z,24.80
2023-04-22T14:30:51.606Z,25.10
2023-04-22T14:33:21.352Z,25.00
2023-04-22T14:35:49.333Z,24.80
2023-04-22T14:38:17.100Z,24.90
2023-04-22T14:40:45.103Z,24.90
2023-04-22T14:43:13.038Z,24.70
2023-04-22T14:45:41.006Z,25.00
2023-04-22T14:48:09.018Z,25.20
2023-04-22T14:50:38.435Z,25.40
2023-04-22T14:53:06.413Z,25.40
2023-04-22T14:55:35.452Z,25.50
2023-04-22T14:58:03.264Z,25.60
2023-04-22T15:00:31.222Z,25.10
2023-04-22T15:03:00.411Z,25.30
2023-04-22T15:05:28.472Z,24.80
2023-04-22T15:07:58.729Z,24.70
2023-04-22T15:10:29.750Z,25.00
2023-04-22T15:12:57.593Z,24.70
2023-04-22T15:15:25.666Z,24.60
2023-04-22T15:17:54.902Z,24.70
2023-04-22T15:20:24.852Z,24.70
2023-04-22T15:22:52.970Z,24.90
2023-04-22T15:25:24.344Z,24.80
2023-04-22T15:27:56.331Z,24.80
2023-04-22T15:30:24.724Z,24.70
2023-04-22T15:32:53.156Z,24.20
2023-04-22T15:35:24.887Z,24.10
2023-04-22T15:37:54.143Z,24.00
2023-04-22T15:40:24.530Z,24.10
2023-04-22T15:42:53.474Z,24.10
2023-04-22T15:45:21.613Z,24.30
2023-04-22T15:47:52.140Z,24.50
2023-04-22T15:50:23.125Z,24.80
2023-04-22T15:52:51.010Z,24.90
2023-04-22T15:55:19.037Z,25.00
2023-04-22T15:57:48.464Z,25.00
2023-04-22T16:00:16.764Z,25.00
2023-04-22T16:02:46.478Z,24.70
2023-04-22T16:05:15.148Z,24.70
2023-04-22T16:07:42.994Z,24.70
2023-04-22T16:10:11.902Z,24.60
2023-04-22T16:12:39.758Z,24.80
2023-04-22T16:15:10.858Z,24.80
2023-04-22T16:17:39.426Z,24.60
2023-04-22T16:20:09.673Z,24.70
2023-04-22T16:22:37.999Z,24.30
2023-04-22T16:25:07.116Z,24.20
2023-04-22T16:27:34.993Z,23.80
2023-04-22T16:30:02.874Z,23.70
2023-04-22T16:32:32.175Z,23.40
2023-04-22T16:35:00.058Z,23.20
2023-04-22T16:37:28.056Z,23.20
2023-04-22T16:39:56.218Z,22.60
2023-04-22T16:42:24.072Z,22.80
2023-04-22T16:44:52.378Z,22.90
2023-04-22T16:47:20.393Z,22.80
2023-04-22T16:49:49.642Z,22.70
2023-04-22T16:52:17.442Z,22.60
2023-04-22T16:54:45.364Z,22.50
2023-04-22T16:59:42.400Z,22.00
2023-04-22T17:02:10.662Z,22.10
2023-04-22T17:04:38.788Z,22.00
2023-04-22T17:07:08.122Z,22.00
2023-04-22T17:09:35.921Z,21.80
2023-04-22T17:12:04.044Z,21.80
2023-04-22T17:14:32.104Z,21.60
2023-04-22T17:17:00.067Z,21.90
2023-04-22T17:19:28.008Z,21.40
2023-04-22T17:21:56.038Z,21.20
2023-04-22T17:24:25.303Z,21.10
2023-04-22T17:26:53.155Z,21.50
2023-04-22T17:29:21.754Z,21.00
2023-04-22T17:31:49.933Z,20.90
2023-04-22T17:34:17.870Z,20.80
2023-04-22T17:36:46.009Z,21.00
2023-04-22T17:39:14.901Z,20.50
2023-04-22T17:41:47.111Z,20.30
2023-04-22T17:44:14.992Z,20.40
2023-04-22T17:46:43.040Z,20.50
2023-04-22T17:49:10.926Z,20.00
2023-04-22T17:51:38.831Z,20.30
2023-04-22T17:54:07.381Z,19.70
2023-04-22T17:56:40.419Z,19.80
2023-04-22T17:59:11.305Z,19.70
2023-04-22T18:01:39.715Z,19.70
2023-04-22T18:04:08.833Z,19.50
2023-04-22T18:06:36.880Z,19.50
2023-04-22T18:09:05.588Z,19.30
2023-04-22T18:11:35.284Z,19.40
2023-04-22T18:14:03.373Z,19.50
2023-04-22T18:16:33.857Z,19.30
2023-04-22T18:19:03.950Z,19.10
2023-04-22T18:21:32.598Z,19.50
2023-04-22T18:24:02.451Z,18.80
2023-04-22T18:26:30.308Z,18.90
2023-04-22T18:28:59.629Z,18.80
2023-04-22T18:31:27.610Z,18.90
2023-04-22T18:33:56.821Z,18.70
2023-04-22T18:36:24.692Z,18.90
2023-04-22T18:38:53.335Z,18.60
2023-04-22T18:41:21.243Z,18.40
2023-04-22T18:43:49.182Z,18.30
2023-04-22T18:46:18.066Z,18.40
2023-04-22T18:48:45.927Z,18.40
2023-04-22T18:51:15.238Z,18.10
2023-04-22T18:53:43.156Z,18.00
2023-04-22T18:56:11.060Z,18.10
2023-04-22T18:58:38.918Z,18.00
2023-04-22T19:01:06.887Z,18.00
2023-04-22T19:03:34.960Z,18.30
2023-04-22T19:06:02.909Z,17.90
2023-04-22T19:08:32.140Z,17.90
2023-04-22T19:11:00.409Z,18.00
2023-04-22T19:13:30.000Z,18.10
2023-04-22T19:15:58.519Z,17.90
2023-04-22T19:18:27.028Z,18.00
2023-04-22T19:20:55.257Z,17.80
2023-04-22T19:23:23.395Z,17.80
2023-04-22T19:25:53.063Z,18.10
2023-04-22T19:28:21.311Z,17.70
2023-04-22T19:30:49.234Z,17.60
2023-04-22T19:33:17.291Z,18.00
2023-04-22T19:35:45.731Z,17.70
2023-04-22T19:38:16.228Z,17.50
2023-04-22T19:40:44.114Z,17.70
2023-04-22T19:43:17.111Z,17.50
2023-04-22T19:45:45.091Z,17.50
2023-04-22T19:48:13.908Z,17.40
2023-04-22T19:50:44.970Z,17.30
2023-04-22T19:53:13.742Z,17.50
2023-04-22T19:55:44.292Z,17.20
2023-04-22T19:58:13.830Z,17.20
2023-04-22T20:00:42.644Z,17.50
2023-04-22T20:03:13.114Z,17.50
2023-04-22T20:05:41.953Z,17.40
2023-04-22T20:08:11.266Z,17.10
2023-04-22T20:10:39.479Z,17.20
2023-04-22T20:13:10.308Z,17.30
2023-04-22T20:15:39.946Z,17.20
2023-04-22T20:18:09.665Z,17.20
2023-04-22T20:20:38.657Z,17.10
2023-04-22T20:23:10.394Z,17.20
2023-04-22T20:25:40.567Z,17.20
2023-04-22T20:28:10.579Z,17.20
2023-04-22T20:30:40.933Z,17.00
2023-04-22T20:33:11.947Z,17.10
2023-04-22T20:35:40.304Z,17.10
2023-04-22T20:38:12.330Z,17.30
2023-04-22T20:40:40.751Z,16.90
2023-04-22T20:43:08.679Z,17.50
2023-04-22T20:45:37.005Z,17.00
2023-04-22T20:48:06.507Z,17.10
2023-04-22T20:50:34.541Z,16.80
2023-04-22T20:53:04.209Z,17.20
2023-04-22T20:55:33.783Z,16.80
2023-04-22T20:58:03.791Z,16.70
2023-04-22T21:00:32.236Z,16.80
2023-04-22T21:03:03.398Z,16.80
2023-04-22T21:05:40.629Z,16.70
2023-04-22T21:08:20.691Z,16.60
2023-04-22T21:10:49.085Z,16.60
2023-04-22T21:13:17.251Z,16.70
2023-04-22T21:15:56.269Z,16.10
2023-04-22T21:18:26.405Z,16.60
2023-04-22T21:20:57.245Z,16.60
2023-04-22T21:23:25.867Z,16.60
2023-04-22T21:25:56.462Z,16.30
2023-04-22T21:28:24.828Z,16.70
2023-04-22T21:30:53.221Z,16.20
2023-04-22T21:33:21.173Z,16.40
2023-04-22T21:38:19.664Z,16.10
2023-04-22T21:40:48.630Z,16.20
2023-04-22T21:43:16.521Z,16.00
2023-04-22T21:45:44.405Z,15.90
2023-04-22T21:48:12.573Z,15.90
2023-04-22T21:50:40.496Z,16.30
2023-04-22T21:53:08.366Z,15.80
2023-04-22T21:55:37.543Z,15.90
2023-04-22T21:58:05.400Z,16.00
2023-04-22T22:03:02.483Z,15.70
2023-04-22T22:05:30.791Z,15.70
2023-04-22T22:07:58.762Z,15.60
2023-04-22T22:12:56.480Z,15.60
2023-04-22T22:17:53.043Z,15.60
2023-04-22T22:22:49.379Z,15.50
2023-04-22T22:25:17.562Z,15.70
2023-04-22T22:27:47.200Z,15.60
2023-04-22T22:37:44.591Z,15.40
2023-04-22T22:40:13.474Z,15.40
2023-04-22T22:50:09.901Z,15.40
